Time;durP1;ratioP1;P1;durP2;ratioP2;P2;SDS_P1;SDS_P2;PMS_P1;PMS_P2;Temp;Humidity;BMP_temperature;BMP_pressure;BME280_temperature;BME280_humidity;BME280_pressure;Samples;Min_cycle;Max_cycle;Signal;HPM_P1;HPM_P2
2022/06/29 00:02:26;;;;;;;21.85;17.60;;;;;;;21.29;95.06;101004.81;1664072;85;25918;-80
2022/06/29 00:04:52;;;;;;;21.00;17.77;;;;;;;21.29;95.32;101006.70;1663165;83;25943;-80
2022/06/29 00:07:18;;;;;;;19.52;17.45;;;;;;;21.23;95.39;100998.16;1657529;85;26880;-80
2022/06/29 00:09:45;;;;;;;19.70;17.67;;;;;;;21.16;95.52;100990.67;1670007;85;26501;-80
2022/06/29 00:12:11;;;;;;;24.47;17.85;;;;;;;21.13;95.65;100993.88;1652087;86;27519;-80
2022/06/29 00:14:43;;;;;;;20.62;17.37;;;;;;;21.08;95.79;100990.56;1651889;85;26527;-80
2022/06/29 00:17:13;;;;;;;23.20;17.95;;;;;;;21.05;95.93;100979.31;1680524;85;26373;-80
2022/06/29 00:19:41;;;;;;;29.30;17.90;;;;;;;21.01;95.79;100974.03;1681124;84;26076;-79
2022/06/29 00:22:10;;;;;;;19.25;17.20;;;;;;;20.99;95.97;100974.82;1672227;85;25993;-80
2022/06/29 00:24:36;;;;;;;21.87;18.48;;;;;;;20.95;96.06;100979.95;1689466;82;27631;-80
2022/06/29 00:27:04;;;;;;;23.02;18.17;;;;;;;20.90;96.29;100982.56;1698610;83;25934;-80
2022/06/29 00:29:30;;;;;;;22.07;17.98;;;;;;;20.86;96.42;100974.59;1674107;83;26197;-80
2022/06/29 00:31:56;;;;;;;21.62;18.73;;;;;;;20.81;96.59;100975.86;1692302;83;26878;-79
2022/06/29 00:34:23;;;;;;;21.70;17.77;;;;;;;20.81;96.79;100975.86;1658818;85;25353;-79
2022/06/29 00:36:49;;;;;;;20.48;17.95;;;;;;;20.80;96.84;100976.11;1670293;85;27525;-80
2022/06/29 00:39:16;;;;;;;21.15;18.02;;;;;;;20.78;96.87;100975.53;1652989;85;25891;-80
2022/06/29 00:41:45;;;;;;;23.45;17.57;;;;;;;20.77;96.94;100967.89;1665010;85;25847;-79
2022/06/29 00:44:17;;;;;;;25.52;18.17;;;;;;;20.75;96.79;100968.14;1680018;83;26556;-80
2022/06/29 00:46:57;;;;;;;20.37;18.15;;;;;;;20.75;96.88;100957.25;1681102;85;25802;-80
2022/06/29 00:49:26;;;;;;;24.72;17.62;;;;;;;20.72;97.01;100962.37;1669557;85;28275;-79
2022/06/29 00:52:00;;;;;;;21.33;17.52;;;;;;;20.68;96.94;100957.09;1670268;85;25849;-80
2022/06/29 00:54:32;;;;;;;20.75;18.05;;;;;;;20.65;96.80;100959.80;1663553;85;26573;-80
2022/06/29 00:57:03;;;;;;;23.52;18.92;;;;;;;20.65;96.93;100952.99;1659513;83;26087;-79
2022/06/29 00:59:33;;;;;;;20.95;17.95;;;;;;;20.64;96.76;100954.58;1668388;83;25920;-80
2022/06/29 01:02:00;;;;;;;22.02;18.55;;;;;;;20.61;96.64;100948.28;1653518;85;34125;-80
2022/06/29 01:04:26;;;;;;;20.37;18.00;;;;;;;20.59;96.75;100944.98;1663755;84;25834;-80
2022/06/29 01:06:52;;;;;;;22.77;18.17;;;;;;;20.55;96.60;100945.17;1677393;84;25839;-80
2022/06/29 01:09:19;;;;;;;21.75;18.60;;;;;;;20.53;96.52;100945.39;1659577;85;26923;-80
2022/06/29 01:11:53;;;;;;;25.02;17.70;;;;;;;20.51;96.67;100936.65;1659034;84;25909;-80
2022/06/29 01:14:17;;;;;;;26.77;19.50;;;;;;;20.52;96.82;100934.23;1669615;83;28537;-80
2022/06/29 01:16:43;;;;;;;24.47;19.42;;;;;;;20.54;96.68;100929.38;1680982;85;25792;-80
2022/06/29 01:19:10;;;;;;;27.95;20.10;;;;;;;20.53;96.40;100920.90;1666476;85;26608;-80
2022/06/29 01:21:39;;;;;;;23.55;19.98;;;;;;;20.51;96.37;100916.77;1671897;85;27543;-80
2022/06/29 01:24:06;;;;;;;22.60;20.05;;;;;;;20.51;96.46;100915.41;1668221;83;26027;-80
2022/06/29 01:26:32;;;;;;;24.80;19.30;;;;;;;20.50;96.19;100910.52;1664847;85;27463;-80
2022/06/29 01:28:59;;;;;;;31.82;20.85;;;;;;;20.50;95.92;100905.61;1666814;85;26511;-80
2022/06/29 01:31:25;;;;;;;31.25;21.10;;;;;;;20.48;95.98;100900.94;1670453;84;26237;-80
2022/06/29 01:33:51;;;;;;;23.00;20.65;;;;;;;20.43;95.98;100900.84;1682468;85;26073;-81
2022/06/29 01:36:18;;;;;;;28.90;21.82;;;;;;;20.37;96.16;100892.30;1657102;84;25743;-80
2022/06/29 01:38:45;;;;;;;26.10;21.68;;;;;;;20.36;96.32;100894.74;1672249;84;27473;-80
2022/06/29 01:41:11;;;;;;;28.90;22.70;;;;;;;20.33;96.26;100895.22;1667674;85;25800;-80
2022/06/29 01:43:38;;;;;;;27.62;20.85;;;;;;;20.32;96.26;100888.11;1677739;83;25699;-80
2022/06/29 01:46:06;;;;;;;24.35;20.35;;;;;;;20.31;96.27;100892.75;1685320;83;26867;-80
2022/06/29 01:48:33;;;;;;;25.35;20.37;;;;;;;20.32;95.98;100897.10;1652530;85;25899;-81
2022/06/29 01:50:59;;;;;;;25.92;19.95;;;;;;;20.33;95.86;100893.33;1668003;85;27608;-80
2022/06/29 01:53:26;;;;;;;23.25;19.90;;;;;;;20.34;95.64;100890.87;1669290;85;26484;-80
2022/06/29 01:55:53;;;;;;;24.85;20.50;;;;;;;20.34;95.68;100896.85;1669367;83;25818;-80
2022/06/29 01:58:19;;;;;;;23.15;19.37;;;;;;;20.33;95.26;100897.41;1665243;85;26757;-80
2022/06/29 02:00:46;;;;;;;19.73;17.62;;;;;;;20.33;95.14;100897.94;1661773;85;25944;-80
2022/06/29 02:03:14;;;;;;;23.67;18.67;;;;;;;20.31;94.90;100902.80;1670042;85;28283;-80
2022/06/29 02:05:40;;;;;;;22.35;18.55;;;;;;;20.29;94.68;100906.30;1671036;83;25904;-80
2022/06/29 02:08:07;;;;;;;25.92;19.15;;;;;;;20.27;94.59;100908.44;1670843;85;25984;-80
2022/06/29 02:10:33;;;;;;;25.12;21.05;;;;;;;20.23;94.65;100902.63;1678792;84;26067;-80
2022/06/29 02:13:00;;;;;;;21.75;19.20;;;;;;;20.23;94.80;100902.63;1657531;85;26008;-80
2022/06/29 02:15:26;;;;;;;21.10;18.85;;;;;;;20.27;94.97;100906.55;1659076;85;27462;-80
2022/06/29 02:17:53;;;;;;;24.63;19.75;;;;;;;20.28;94.72;100900.02;1682505;85;25848;-80
2022/06/29 02:20:20;;;;;;;24.90;19.05;;;;;;;20.28;94.63;100904.63;1669217;84;25785;-80
2022/06/29 02:22:46;;;;;;;25.75;20.60;;;;;;;20.27;94.70;100904.36;1681234;84;26536;-80
2022/06/29 02:25:13;;;;;;;22.15;19.07;;;;;;;20.27;94.88;100897.02;1667824;83;25907;-80
2022/06/29 02:27:41;;;;;;;25.00;18.75;;;;;;;20.30;95.11;100901.13;1668322;83;27467;-80
2022/06/29 02:30:10;;;;;;;25.65;19.23;;;;;;;20.32;95.08;100902.55;1681294;84;25884;-80
2022/06/29 02:35:21;;;;;;;20.92;18.73;;;;;;;20.34;95.16;100903.66;1692582;82;26941;-80
2022/06/29 02:37:47;;;;;;;24.23;18.37;;;;;;;20.33;95.19;100899.30;1685215;83;25318;-80
2022/06/29 02:40:14;;;;;;;21.07;18.45;;;;;;;20.33;95.16;100899.30;1667363;83;27611;-80
2022/06/29 02:42:41;;;;;;;22.50;18.37;;;;;;;20.34;95.21;100899.57;1661535;85;25617;-80
2022/06/29 02:45:08;;;;;;;24.72;19.32;;;;;;;20.33;95.01;100902.02;1652093;85;26560;-79
2022/06/29 02:47:34;;;;;;;26.85;19.62;;;;;;;20.34;95.16;100899.57;1664550;85;26888;-80
2022/06/29 02:50:00;;;;;;;29.67;19.57;;;;;;;20.34;95.11;100900.93;1665091;85;25769;-80
2022/06/29 02:52:27;;;;;;;31.90;20.75;;;;;;;20.31;95.10;100903.62;1652681;85;27453;-80
2022/06/29 02:54:53;;;;;;;28.27;20.35;;;;;;;20.33;95.19;100910.18;1677250;83;25956;-80
2022/06/29 02:57:20;;;;;;;26.48;20.00;;;;;;;20.34;95.19;100905.84;1683358;85;25305;-80
2022/06/29 02:59:47;;;;;;;31.23;21.27;;;;;;;20.35;95.24;100900.71;1659427;84;26639;-80
2022/06/29 03:02:13;;;;;;;29.50;19.35;;;;;;;20.36;95.14;100894.74;1666037;85;25893;-80
2022/06/29 03:04:39;;;;;;;26.82;20.62;;;;;;;20.34;95.04;100895.48;1663061;83;28204;-80
2022/06/29 03:07:05;;;;;;;25.32;20.23;;;;;;;20.33;94.79;100891.97;1676905;83;25848;-80
2022/06/29 03:09:32;;;;;;;25.88;19.75;;;;;;;20.31;94.73;100890.55;1666626;84;25672;-80
2022/06/29 03:11:58;;;;;;;27.42;20.65;;;;;;;20.30;94.78;100896.52;1683168;81;26121;-80
2022/06/29 03:14:24;;;;;;;20.45;18.30;;;;;;;20.29;94.59;100898.97;1676533;83;25833;-79
2022/06/29 03:16:51;;;;;;;24.98;20.30;;;;;;;20.26;94.52;100896.72;1673890;85;27453;-80
2022/06/29 03:19:17;;;;;;;23.87;20.57;;;;;;;20.27;94.66;100891.59;1668792;85;25907;-80
2022/06/29 03:21:43;;;;;;;27.55;21.42;;;;;;;20.27;94.61;100901.11;1666843;84;25952;-80
2022/06/29 03:24:10;;;;;;;26.20;21.35;;;;;;;20.30;94.82;100906.05;1666945;83;26572;-80
2022/06/29 03:26:36;;;;;;;34.27;22.93;;;;;;;20.32;94.91;100905.27;1672753;85;25765;-80
2022/06/29 03:29:02;;;;;;;29.32;21.37;;;;;;;20.32;94.87;100909.34;1669149;84;27452;-80
2022/06/29 03:31:28;;;;;;;26.77;21.02;;;;;;;20.33;94.97;100903.38;1668563;84;25918;-79
2022/06/29 03:33:55;;;;;;;30.45;22.35;;;;;;;20.35;95.12;100910.23;1670345;84;25952;-80
2022/06/29 03:36:21;;;;;;;33.20;22.70;;;;;;;20.37;95.20;100909.45;1668080;85;26019;-80
2022/06/29 03:38:47;;;;;;;31.95;22.58;;;;;;;20.36;95.20;100900.19;1676628;84;26509;-80
2022/06/29 03:41:14;;;;;;;24.98;19.73;;;;;;;20.33;95.42;100899.30;1665819;84;27430;-80
2022/06/29 03:43:40;;;;;;;28.05;19.57;;;;;;;20.31;95.55;100898.19;1668967;85;25786;-80
2022/06/29 03:46:06;;;;;;;27.82;19.92;;;;;;;20.34;95.90;100887.33;1675056;83;25825;-80
2022/06/29 03:48:32;;;;;;;33.80;19.90;;;;;;;20.37;95.95;100878.69;1678352;84;26093;-80
2022/06/29 03:50:59;;;;;;;28.85;20.68;;;;;;;20.38;95.87;100868.91;1672764;84;25908;-80
2022/06/29 03:53:25;;;;;;;31.45;21.40;;;;;;;20.41;95.88;100868.97;1671896;85;27422;-80
2022/06/29 03:55:51;;;;;;;34.43;23.35;;;;;;;20.40;95.60;100862.69;1677837;84;25811;-80
2022/06/29 03:58:17;;;;;;;32.03;23.83;;;;;;;20.38;95.65;100862.67;1676810;83;25844;-80
2022/06/29 04:00:44;;;;;;;40.33;21.95;;;;;;;20.36;95.74;100871.61;1676860;84;26854;-80
2022/06/29 04:03:10;;;;;;;38.45;22.62;;;;;;;20.36;95.87;100869.70;1674361;84;25346;-79
2022/06/29 04:05:36;;;;;;;50.48;23.60;;;;;;;20.33;95.79;100871.56;1652404;85;27440;-79
2022/06/29 04:08:03;;;;;;;30.97;22.15;;;;;;;20.32;96.05;100875.86;1677525;85;25946;-80
2022/06/29 04:10:29;;;;;;;33.63;21.07;;;;;;;20.31;96.22;100866.91;1681932;84;25863;-79
2022/06/29 04:12:56;;;;;;;23.30;20.00;;;;;;;20.30;96.39;100862.52;1670375;84;26076;-80
2022/06/29 04:15:22;;;;;;;15.88;14.18;;;;;;;20.28;96.46;100854.30;1665771;83;25796;-79
2022/06/29 04:17:48;;;;;;;18.40;14.85;;;;;;;20.22;95.88;100849.84;1652512;85;27462;-80
2022/06/29 04:23:01;;;;;;;17.00;15.20;;;;;;;20.09;96.52;100849.57;1665672;84;25332;-80
2022/06/29 04:25:28;;;;;;;18.82;16.82;;;;;;;20.05;96.98;100842.97;1670425;83;26089;-80
2022/06/29 04:27:55;;;;;;;22.87;16.82;;;;;;;20.11;97.34;100845.23;1670655;85;26009;-80
2022/06/29 04:30:22;;;;;;;21.20;17.15;;;;;;;20.15;97.30;100851.31;1670003;85;28305;-80
2022/06/29 04:32:48;;;;;;;19.77;17.67;;;;;;;20.19;97.34;100848.95;1671841;83;25911;-80
2022/06/29 04:35:14;;;;;;;17.62;15.83;;;;;;;20.22;97.60;100851.20;1686056;83;26523;-80
2022/06/29 04:37:41;;;;;;;16.73;14.68;;;;;;;20.21;97.70;100848.20;1673881;82;26086;-80
2022/06/29 04:40:08;;;;;;;16.27;14.07;;;;;;;20.18;97.97;100852.73;1670276;84;25812;-80
2022/06/29 04:42:35;;;;;;;15.75;14.05;;;;;;;20.19;97.91;100851.67;1662112;85;28330;-80
2022/06/29 04:45:01;;;;;;;19.77;14.18;;;;;;;20.18;97.80;100851.37;1652887;85;26086;-80
2022/06/29 04:47:27;;;;;;;17.20;13.98;;;;;;;20.19;98.43;100851.11;1671197;83;25809;-80
2022/06/29 04:49:53;;;;;;;16.75;14.63;;;;;;;20.22;98.29;100860.19;1659080;85;26907;-80
2022/06/29 04:52:20;;;;;;;20.25;13.05;;;;;;;20.27;98.53;100849.95;1657084;83;26489;-80
2022/06/29 04:54:46;;;;;;;14.95;12.47;;;;;;;20.35;98.58;100853.09;1659829;84;27510;-80
2022/06/29 04:57:12;;;;;;;15.18;13.10;;;;;;;20.35;98.04;100853.63;1652570;85;25963;-80
2022/06/29 04:59:39;;;;;;;14.98;12.47;;;;;;;20.39;98.33;100856.14;1652645;85;25814;-80
2022/06/29 05:02:05;;;;;;;15.88;13.25;;;;;;;20.40;97.89;100851.00;1664982;85;26698;-80
2022/06/29 05:04:31;;;;;;;14.50;12.82;;;;;;;20.40;97.75;100859.97;1678085;83;25907;-80
2022/06/29 05:06:57;;;;;;;14.00;12.63;;;;;;;20.42;98.68;100853.75;1657462;85;27463;-80
2022/06/29 05:09:24;;;;;;;13.95;12.50;;;;;;;20.41;97.96;100854.00;1682553;85;25908;-80
2022/06/29 05:11:50;;;;;;;13.95;12.43;;;;;;;20.41;98.13;100851.28;1681670;85;25872;-80
2022/06/29 05:14:16;;;;;;;12.15;10.45;;;;;;;20.40;98.65;100849.09;1677778;83;26411;-80
2022/06/29 05:16:43;;;;;;;15.23;12.30;;;;;;;20.40;97.93;100848.28;1672618;84;25972;-80
2022/06/29 05:19:09;;;;;;;14.23;12.78;;;;;;;20.37;98.13;100855.56;1669018;85;27691;-79
2022/06/29 05:21:35;;;;;;;14.60;12.60;;;;;;;20.36;98.22;100861.53;1681863;84;25362;-80
2022/06/29 05:24:02;;;;;;;15.38;10.98;;;;;;;20.37;98.41;100857.76;1656326;85;26539;-79
2022/06/29 05:26:28;;;;;;;13.70;11.28;;;;;;;20.41;98.35;100868.44;1675932;85;26033;-80
2022/06/29 05:28:54;;;;;;;12.58;11.53;;;;;;;20.43;98.34;100869.55;1676752;84;26511;-80
2022/06/29 05:31:20;;;;;;;13.40;10.72;;;;;;;20.46;98.30;100869.91;1662468;85;27445;-80
2022/06/29 05:33:47;;;;;;;13.83;11.12;;;;;;;20.46;98.10;100871.27;1664134;85;25743;-79
2022/06/29 05:36:13;;;;;;;12.25;11.05;;;;;;;20.49;98.59;100876.20;1674609;85;25916;-79
2022/06/29 05:38:40;;;;;;;12.95;11.70;;;;;;;20.51;97.76;100876.77;1661713;85;26086;-79
2022/06/29 05:41:06;;;;;;;11.63;10.53;;;;;;;20.56;98.38;100881.48;1667739;85;26579;-79
2022/06/29 05:43:33;;;;;;;12.78;11.48;;;;;;;20.58;97.38;100880.17;1652368;85;27485;-79
2022/06/29 05:46:00;;;;;;;13.18;11.55;;;;;;;20.62;97.84;100884.05;1652147;85;25773;-80
2022/06/29 05:48:26;;;;;;;13.95;11.60;;;;;;;20.64;97.26;100880.55;1671292;85;25651;-80
2022/06/29 05:50:53;;;;;;;11.93;10.75;;;;;;;20.64;97.23;100889.24;1682707;85;26870;-79
2022/06/29 05:53:19;;;;;;;11.80;10.03;;;;;;;20.66;97.33;100893.91;1669583;84;25801;-80
2022/06/29 05:55:46;;;;;;;10.23;9.33;;;;;;;20.67;96.53;100888.23;1673826;82;27444;-79
2022/06/29 05:58:18;;;;;;;10.40;9.40;;;;;;;20.68;96.52;100884.95;1657643;85;26302;-80
2022/06/29 06:00:40;;;;;;;10.55;9.55;;;;;;;20.70;96.08;100889.62;1668313;84;25892;-79
2022/06/29 06:03:06;;;;;;;10.25;9.35;;;;;;;20.71;96.18;100891.28;1678353;83;26829;-79
2022/06/29 06:05:33;;;;;;;11.63;9.40;;;;;;;20.75;96.42;100886.99;1657273;83;26010;-80
2022/06/29 06:07:59;;;;;;;10.55;8.98;;;;;;;20.80;96.20;100888.98;1652650;85;28309;-80
2022/06/29 06:10:26;;;;;;;10.50;9.60;;;;;;;20.84;96.13;100886.05;1671078;85;26607;-80
2022/06/29 06:12:52;;;;;;;10.65;9.65;;;;;;;20.87;96.11;100886.38;1656422;84;25836;-80
2022/06/29 06:15:18;;;;;;;11.08;10.00;;;;;;;20.86;95.64;100886.62;1668325;83;26214;-80
2022/06/29 06:17:45;;;;;;;11.48;10.18;;;;;;;20.83;95.37;100887.14;1670091;84;25847;-79
2022/06/29 06:20:11;;;;;;;10.82;9.85;;;;;;;20.83;95.81;100887.94;1671698;82;27601;-80
2022/06/29 06:22:37;;;;;;;10.85;9.83;;;;;;;20.87;95.96;100899.19;1661487;85;25825;-79
2022/06/29 06:25:05;;;;;;;15.55;10.60;;;;;;;20.90;96.12;100905.48;1666673;85;25901;-79
2022/06/29 06:27:31;;;;;;;11.48;9.78;;;;;;;20.91;96.21;100898.45;1669190;85;26088;-79
2022/06/29 06:29:57;;;;;;;10.38;9.30;;;;;;;20.89;95.47;100900.59;1670582;85;25793;-79
2022/06/29 06:32:24;;;;;;;12.43;9.15;;;;;;;20.89;95.55;100905.20;1677731;82;27447;-79
2022/06/29 06:34:50;;;;;;;12.03;9.90;;;;;;;20.90;95.66;100900.03;1677659;83;25751;-79
2022/06/29 06:37:16;;;;;;;12.18;10.15;;;;;;;20.94;96.03;100898.47;1652836;84;25847;-80
2022/06/29 06:41:21;;;;;;;11.18;10.08;;;;;;;20.96;95.64;100901.77;1652599;85;26046;-79
2022/06/29 06:42:11;;;;;;;11.90;10.70;;;;;;;20.97;95.64;100899.34;1673193;85;25761;-80
2022/06/29 06:44:39;;;;;;;11.00;9.95;;;;;;;20.98;95.83;100906.45;1672323;83;27654;-80
2022/06/29 06:47:05;;;;;;;13.13;10.80;;;;;;;20.96;95.41;100903.12;1683370;83;25965;-80
2022/06/29 06:49:31;;;;;;;11.22;9.53;;;;;;;20.96;95.64;100906.69;1692573;83;25344;-79
2022/06/29 06:51:58;;;;;;;13.38;11.03;;;;;;;20.96;95.50;100903.12;1692500;83;26617;-80
2022/06/29 06:54:24;;;;;;;12.13;11.03;;;;;;;20.97;95.59;100900.17;1699257;82;25844;-80
2022/06/29 06:56:50;;;;;;;11.05;9.93;;;;;;;20.95;95.75;100902.86;1685737;82;26892;-80
2022/06/29 06:59:17;;;;;;;12.13;10.93;;;;;;;20.93;95.72;100906.36;1682156;83;26614;-79
2022/06/29 07:01:43;;;;;;;12.82;11.40;;;;;;;20.89;95.43;100904.68;1697344;83;25813;-80
2022/06/29 07:04:09;;;;;;;12.55;11.22;;;;;;;20.81;95.10;100898.81;1675922;83;25893;-80
2022/06/29 07:06:35;;;;;;;11.40;10.30;;;;;;;20.78;95.23;100898.77;1663373;85;26547;-80
2022/06/29 07:09:03;;;;;;;13.68;10.60;;;;;;;20.77;95.72;100901.19;1661983;85;28292;-79
2022/06/29 07:11:30;;;;;;;10.98;9.88;;;;;;;20.73;95.53;100900.86;1658351;85;26480;-80
2022/06/29 07:13:56;;;;;;;12.05;10.93;;;;;;;20.67;95.62;100910.02;1670893;84;25785;-80
2022/06/29 07:16:22;;;;;;;11.73;10.63;;;;;;;20.61;95.84;100902.84;1667170;85;26082;-79
2022/06/29 07:18:49;;;;;;;13.90;10.23;;;;;;;20.59;95.41;100910.95;1664083;85;25727;-80
2022/06/29 07:21:15;;;;;;;12.10;10.90;;;;;;;20.55;95.83;100907.07;1656578;85;27442;-80
2022/06/29 07:23:42;;;;;;;12.50;11.15;;;;;;;20.55;96.13;100916.04;1668303;85;26032;-80
2022/06/29 07:26:08;;;;;;;11.08;10.03;;;;;;;20.55;96.24;100915.23;1678527;83;25975;-79
2022/06/29 07:28:35;;;;;;;15.32;10.55;;;;;;;20.56;96.30;100914.15;1673518;85;26477;-79
2022/06/29 07:31:01;;;;;;;12.58;11.38;;;;;;;20.56;96.72;100914.98;1670859;84;26650;-79
2022/06/29 07:33:27;;;;;;;12.10;10.90;;;;;;;20.58;96.62;100911.48;1681697;84;27613;-79
2022/06/29 07:35:54;;;;;;;13.80;10.78;;;;;;;20.60;96.50;100912.06;1657137;83;25765;-80
2022/06/29 07:38:20;;;;;;;12.13;10.93;;;;;;;20.63;96.59;100919.75;1676482;85;26424;-79
2022/06/29 07:40:46;;;;;;;10.53;9.63;;;;;;;20.67;96.84;100907.83;1675523;83;26129;-79
2022/06/29 07:43:13;;;;;;;12.23;11.12;;;;;;;20.72;96.95;100904.64;1677012;83;26514;-79
2022/06/29 07:45:39;;;;;;;11.70;10.60;;;;;;;20.76;97.05;100906.36;1673718;83;27424;-79
2022/06/29 07:48:08;;;;;;;11.53;10.05;;;;;;;20.79;96.78;100904.48;1666663;85;25772;-80
2022/06/29 07:50:35;;;;;;;11.80;9.68;;;;;;;20.81;96.49;100902.90;1661435;85;25931;-79
2022/06/29 07:53:01;;;;;;;10.32;9.20;;;;;;;20.78;95.96;100906.94;1678186;85;26090;-79
2022/06/29 07:55:27;;;;;;;11.10;10.03;;;;;;;20.75;96.03;100906.89;1682437;83;26499;-80
2022/06/29 07:57:54;;;;;;;10.98;9.93;;;;;;;20.73;96.22;100902.23;1682075;85;27594;-79
2022/06/29 08:00:21;;;;;;;11.63;10.43;;;;;;;20.75;95.89;100901.97;1681017;85;25804;-80
2022/06/29 08:02:48;;;;;;;11.57;10.38;;;;;;;20.75;96.34;100897.36;1669847;85;25745;-80
2022/06/29 08:05:14;;;;;;;11.00;9.78;;;;;;;20.79;96.36;100903.12;1682287;83;26085;-79
2022/06/29 08:07:41;;;;;;;11.30;10.23;;;;;;;20.81;96.15;100900.17;1661206;85;25377;-79
2022/06/29 08:10:08;;;;;;;11.38;10.28;;;;;;;20.89;96.19;100902.48;1664206;85;28300;-79
2022/06/29 08:12:35;;;;;;;11.63;9.85;;;;;;;20.92;96.05;100904.70;1664034;85;25813;-79
2022/06/29 08:15:03;;;;;;;11.88;10.68;;;;;;;20.93;96.35;100902.28;1674700;83;25766;-79
2022/06/29 08:17:29;;;;;;;11.73;10.58;;;;;;;20.93;95.32;100900.91;1652489;85;26272;-79
2022/06/29 08:19:56;;;;;;;11.53;10.05;;;;;;;20.89;94.95;100893.79;1677836;85;25730;-79
2022/06/29 08:22:22;;;;;;;11.30;10.28;;;;;;;20.90;95.34;100895.95;1681712;85;28336;-79
2022/06/29 08:24:48;;;;;;;11.83;10.58;;;;;;;20.95;95.51;100892.80;1671903;83;25981;-79
2022/06/29 08:27:15;;;;;;;10.70;9.60;;;;;;;21.02;95.30;100894.80;1668888;85;25797;-79
2022/06/29 08:29:41;;;;;;;11.75;9.80;;;;;;;21.11;95.48;100887.89;1670012;84;25829;-79
2022/06/29 08:32:07;;;;;;;10.75;9.75;;;;;;;21.24;95.09;100885.36;1679699;85;25330;-79
2022/06/29 08:34:39;;;;;;;10.95;9.88;;;;;;;21.36;95.58;100877.94;1652365;85;27458;-79
2022/06/29 08:37:05;;;;;;;11.00;10.00;;;;;;;21.46;94.51;100883.52;1652761;85;25778;-79
2022/06/29 08:39:32;;;;;;;11.08;10.00;;;;;;;21.57;94.54;100892.13;1664525;85;25750;-79
2022/06/29 08:42:03;;;;;;;10.08;9.15;;;;;;;21.69;94.68;100888.73;1677718;85;26130;-79
2022/06/29 08:44:33;;;;;;;11.65;10.45;;;;;;;21.84;93.20;100887.61;1668265;84;25841;-79
2022/06/29 08:47:08;;;;;;;11.30;9.20;;;;;;;21.92;92.93;100883.06;1681217;84;28222;-79
2022/06/29 08:49:39;;;;;;;10.95;9.00;;;;;;;22.04;92.92;100882.95;1645865;85;25973;-79
2022/06/29 08:52:08;;;;;;;11.73;9.98;;;;;;;22.09;90.67;100878.92;1628432;87;26062;-79
2022/06/29 08:54:38;;;;;;;10.90;9.93;;;;;;;22.08;90.57;100882.72;1631920;86;26127;-79
2022/06/29 08:57:06;;;;;;;9.50;8.55;;;;;;;22.11;89.81;100884.38;1656458;85;25859;-79
2022/06/29 08:59:35;;;;;;;9.93;8.93;;;;;;;22.15;90.11;100884.72;1617063;87;27463;-79
2022/06/29 09:02:03;;;;;;;10.65;9.48;;;;;;;22.19;89.47;100885.31;1647149;83;25945;-79
2022/06/29 09:04:30;;;;;;;9.25;8.45;;;;;;;22.23;89.17;100881.53;1647712;86;25841;-79
2022/06/29 09:06:57;;;;;;;10.00;9.00;;;;;;;22.26;89.45;100883.19;1656108;86;26067;-79
2022/06/29 09:09:24;;;;;;;9.33;8.35;;;;;;;22.33;88.63;100888.45;1637574;85;26676;-79
2022/06/29 09:11:52;;;;;;;9.50;8.60;;;;;;;22.37;87.93;100881.39;1646679;85;27039;-79
2022/06/29 09:14:25;;;;;;;8.90;8.05;;;;;;;22.40;87.67;100885.52;1643936;86;26550;-80
2022/06/29 09:16:59;;;;;;;10.53;8.83;;;;;;;22.40;87.83;100887.72;1654804;85;26604;-79
2022/06/29 09:19:36;;;;;;;9.20;8.38;;;;;;;22.46;86.92;100885.31;1632008;86;26018;-79
2022/06/29 09:22:03;;;;;;;10.08;8.43;;;;;;;22.48;86.25;100880.95;1645508;86;25347;-79
2022/06/29 09:24:36;;;;;;;10.53;8.40;;;;;;;22.58;87.42;100878.34;1652337;85;26979;-79
2022/06/29 09:27:04;;;;;;;9.58;8.58;;;;;;;22.63;85.97;100878.41;1648084;85;25944;-79
2022/06/29 09:29:33;;;;;;;9.55;8.53;;;;;;;22.63;86.14;100875.67;1661168;85;25822;-79
2022/06/29 09:32:05;;;;;;;9.60;8.60;;;;;;;22.64;85.49;100880.06;1657109;86;26083;-79
2022/06/29 09:34:36;;;;;;;8.70;7.75;;;;;;;22.61;84.98;100884.66;1638244;85;25910;-79
2022/06/29 09:37:06;;;;;;;9.10;8.30;;;;;;;22.62;85.52;100891.25;1636359;85;27474;-79
2022/06/29 09:39:45;;;;;;;9.43;8.43;;;;;;;22.70;85.77;100889.95;1643184;86;25767;-79
2022/06/29 09:42:21;;;;;;;8.85;8.05;;;;;;;22.81;86.39;100883.50;1659700;86;26524;-79
2022/06/29 09:44:48;;;;;;;9.75;7.95;;;;;;;22.95;86.07;100887.42;1651822;85;26657;-79
2022/06/29 09:47:22;;;;;;;10.63;9.25;;;;;;;23.07;84.80;100884.53;1650865;86;25686;-79
2022/06/29 09:49:50;;;;;;;9.55;8.65;;;;;;;23.14;84.11;100885.14;1651781;86;28303;-78
2022/06/29 09:52:18;;;;;;;;;;;;;;;23.14;83.63;100884.56;1648523;85;25832;-79
2022/06/29 09:54:57;;;;;;;9.18;8.38;;;;;;;23.17;83.45;100880.49;1672537;83;25948;-79
2022/06/29 09:57:30;;;;;;;9.10;8.33;;;;;;;23.21;84.77;100877.51;1683210;84;26093;-78
2022/06/29 10:02:55;;;;;;;9.00;8.20;;;;;;;23.45;82.97;100866.50;1661214;84;28307;-80
2022/06/29 10:05:54;;;;;;;9.18;8.33;;;;;;;23.55;82.29;100864.64;1687126;83;26480;-79
2022/06/29 10:07:55;;;;;;;11.45;8.60;;;;;;;23.64;82.08;100864.95;1685522;84;25306;-79
2022/06/29 10:10:25;;;;;;;8.45;7.53;;;;;;;23.71;81.78;100860.91;1687145;84;26078;-79
2022/06/29 10:16:20;;;;;;;8.75;7.90;;;;;;;23.95;81.54;100860.45;1687181;83;28289;-79
2022/06/29 10:19:01;;;;;;;8.40;7.60;;;;;;;24.03;81.37;100865.39;1687376;84;25333;-79
2022/06/29 10:21:30;;;;;;;10.28;7.67;;;;;;;24.04;81.32;100868.39;1686799;84;26017;-79
2022/06/29 10:24:00;;;;;;;8.68;7.80;;;;;;;24.03;80.70;100869.50;1687171;83;26722;-79
2022/06/29 10:26:35;;;;;;;9.38;8.33;;;;;;;24.01;80.02;100870.31;1687195;84;25791;-79
2022/06/29 10:29:21;;;;;;;9.50;8.60;;;;;;;24.05;80.33;100865.98;1687307;84;27591;-79
2022/06/29 10:31:59;;;;;;;9.43;7.55;;;;;;;24.08;79.60;100868.19;1686564;84;25766;-79
2022/06/29 10:34:34;;;;;;;9.03;8.13;;;;;;;24.12;78.85;100870.66;1687586;83;25837;-79
2022/06/29 10:37:14;;;;;;;11.22;8.35;;;;;;;24.16;78.83;100863.55;1687180;84;26085;-79
2022/06/29 10:39:49;;;;;;;8.50;7.40;;;;;;;24.14;78.25;100856.16;1687804;84;25297;-79
2022/06/29 10:45:16;;;;;;;9.55;6.60;;;;;;;24.33;79.24;100847.72;1687049;83;25611;-79
2022/06/29 10:47:58;;;;;;;;;;;;;;;24.47;78.92;100849.64;1689651;83;25777;-78
2022/06/29 10:50:28;;;;;;;9.20;7.62;;;;;;;24.60;77.81;100841.98;1687494;84;26877;-79
2022/06/29 10:53:04;;;;;;;8.88;7.83;;;;;;;24.51;76.87;100847.17;1687123;84;25957;-79
2022/06/29 10:55:36;;;;;;;9.15;8.13;;;;;;;24.49;76.77;100850.73;1687104;83;26875;-79
2022/06/29 10:58:03;;;;;;;8.73;7.85;;;;;;;24.62;77.96;100844.72;1687269;84;26159;-79
2022/06/29 11:00:40;;;;;;;10.72;7.72;;;;;;;24.84;78.94;100847.23;1687592;84;26613;-79
2022/06/29 11:03:14;;;;;;;7.47;6.87;;;;;;;24.93;77.45;100845.59;1687264;84;26086;-79
2022/06/29 11:15:39;;;;;;;9.40;7.08;;;;;;;25.00;76.28;100846.14;1659123;84;25917;-79
2022/06/29 11:16:37;;;;;;;8.00;7.15;;;;;;;25.13;74.67;100840.06;1658435;86;26217;-79
2022/06/29 11:19:04;;;;;;;7.75;7.10;;;;;;;25.19;74.23;100835.66;1659632;85;25909;-79
2022/06/29 11:21:32;;;;;;;7.92;7.12;;;;;;;25.29;75.01;100840.32;1659191;85;28241;-80
2022/06/29 11:24:03;;;;;;;8.90;8.00;;;;;;;25.42;74.36;100834.28;1659008;84;25814;-79
2022/06/29 11:26:32;;;;;;;8.88;7.42;;;;;;;25.50;75.08;100839.19;1659702;85;25823;-79
2022/06/29 11:29:00;;;;;;;8.33;6.78;;;;;;;25.51;73.35;100836.73;1659678;85;26087;-79
2022/06/29 11:31:27;;;;;;;8.60;6.75;;;;;;;25.49;73.15;100830.67;1659436;85;26182;-79
2022/06/29 11:33:55;;;;;;;9.10;7.65;;;;;;;25.49;73.09;100828.51;1659158;84;27546;-80
2022/06/29 11:36:28;;;;;;;8.23;7.42;;;;;;;25.47;72.37;100827.97;1659482;85;26507;-79
2022/06/29 11:39:04;;;;;;;8.45;7.33;;;;;;;25.44;72.82;100829.34;1659163;85;26498;-79
2022/06/29 11:44:27;;;;;;;7.53;6.72;;;;;;;25.39;71.29;100838.08;1659478;84;25786;-79